LiveATC.Net - Listen to live air traffic control over the Internet!


ICAO: KBPK  IATA: BPK   Airport: Baxter County Airport
City: Mountain Home   State/Province: Arkansas
Country: United States   Continent: North America
KBPK METAR Weather: KBPK 170253Z AUTO 00000KT 10SM CLR 08/05 A3023 RMK AO2 SLP239 T00780050 50004
KBPK Flight Activity (FlightAware)
KBPK Airport Info   (AirNav) (iFlightPlanner)
KBPK VFR Sectional Chart   (iFlightPlanner) 
KBPK IFR Low Chart   (iFlightPlanner) 

KBPK CTAF
Feed Status: UP   Listeners: 1
Listen in your browser - HTML5 player (in browser, HTML5)
Listen in your browser - requires Flash (in browser, requires Flash)
Click here to listen with your own player (launches your MP3 player)
KBPK CTAF Audio Archives
FacilityFrequency
Baxter County CTAF123.000

NOTICE

Unauthorized use prohibited. See LiveATC.net Terms of Service


Find LiveATC Audio Streams


Airport/ARTCC Code

Frequency Search
(e.g., 124.400, 128.75)
Site-wide search
 


Browse LiveATC Feeds
Top 50 LiveATC Feeds
Bad Weather Areas

LiveATC FAQ
Offer a LiveATC Feed
Contact LiveATC.net
Press Inquiries

LiveATC on iPhone
LiveATC on Android

Windows Phone
Windows 8/10

LiveATC Mobile
(Mobile browser)

ATC Audio Archives
Interesting Recordings

LiveATC Forums


Home Page
About LiveATC.net
Make a Donation
Terms of Use
Privacy Policy

Canadian Air Freqs

AIRMETs/SIGMETs

FAA Airport Status
Nat'l Airspace Status
Arrival Demand Charts


Server Software By:
Icecast.org
Liquidsoap